Latest Coastal Weather Observations for Hobart

IDT60701

Issued at 6:35 pm EST Monday 21 April 2014 (issued every 10 minutes, with the page automatically refreshed every 10 minutes)

About coastal observations | Map of coastal stations | Coastal observations for TAS | Marine services | Other Formats
Station Details ID: 094029 Name: HOBART (ELLERSLIE ROAD) Lat: -42.89 Lon: 147.33 Height: 50.5 m
Data from the previous 72 hours. | See also: Recent months at Hobart
Date/Time
EST
Temp

°C
Wind Pressure Rain
since 9am
mm
Weather Cloud Vis
km
Sea
Height
m
Swell
Dir
 
Speed
knots
Gust
knots
hPa Trend Height
m
Period
s
Dir
21/06:30pm 10.8 W 5 6 1011.7 - 0.2 - - - - - - -
21/06:00pm 11.9 N 4 5 1011.9 - 0.2 - - - - - - -
21/05:30pm 12.0 N 5 7 1012.1 - 0.2 - - - - - - -
21/05:00pm 12.5 N 7 10 1012.7 - 0.2 - - - - - - -
21/04:30pm 13.1 N 8 13 1012.9 - 0.2 - - - - - - -
21/04:00pm 13.6 NNE 2 5 1013.1 - 0.2 - - - - - - -
21/03:30pm 13.4 NE 1 3 1013.5 - 0.2 - - - - - - -
21/03:00pm 13.6 NNE 4 6 1013.6 - 0.2 - - - - - - -
21/02:30pm 13.7 NW 5 8 1014.1 - 0.2 - - - - - - -
21/02:00pm 13.6 NW 4 6 1014.5 - 0.2 - - - - - - -
21/01:30pm 13.5 NNW 3 5 1014.9 - 0.2 - - - - - - -
21/01:00pm 13.5 NNW 5 9 1015.4 - 0.2 - - - - - - -
21/12:30pm 13.3 NE 4 7 1015.9 - 0.2 - - - - - - -
21/12:00pm 13.7 N 4 7 1016.6 - 0.0 - - - - - - -
21/11:30am 12.7 NNW 6 9 1016.9 - 0.0 - - - - - - -
21/11:00am 12.4 NNW 6 8 1017.6 - 0.0 - - - - - - -
21/10:30am 12.3 NNW 9 12 1018.0 - 0.0 - - - - - - -
21/10:00am 10.4 NNW 7 13 1018.2 - 0.0 - - - - - - -
21/09:30am 9.8 N 5 7 1018.2 - 0.0 - - - - - - -
21/09:00am 7.6 NW 8 11 1018.7 - 0.0 - - - - - - -
21/08:30am 6.7 NNW 7 9 1018.8 - 0.0 - - - - - - -
21/08:00am 6.2 WNW 2 5 1018.6 - 0.0 - - - - - - -
21/07:30am 5.6 NW 5 9 1018.5 - 0.0 - - - - - - -
21/07:00am 5.1 NW 6 9 1018.2 - 0.0 - - - - - - -
21/06:30am 5.3 NW 6 10 1018.0 - 0.0 - - - - - - -
21/06:00am 5.3 WNW 6 10 1017.9 - 0.0 - - - - - - -
21/05:30am 5.4 NW 5 8 1017.5 - 0.0 - - - - - - -
21/05:00am 5.7 NW 5 7 1017.3 - 0.0 - - - - - - -
21/04:30am 6.0 NNW 7 10 1016.9 - 0.0 - - - - - - -
21/04:00am 6.3 NW 5 8 1016.8 - 0.0 - - - - - - -
21/03:30am 6.6 W 6 9 1016.7 - 0.0 - - - - - - -
21/03:00am 7.0 W 6 10 1016.7 - 0.0 - - - - - - -
21/02:30am 6.7 W 7 10 1016.7 - 0.0 - - - - - - -
21/02:00am 7.0 NW 3 5 1016.9 - 0.0 - - - - - - -
21/01:30am 6.8 WNW 6 9 1016.5 - 0.0 - - - - - - -
21/01:00am 6.6 WNW 4 8 1016.3 - 0.0 - - - - - - -
21/12:30am 7.6 NNW 4 6 1015.9 - 0.0 - - - - - - -
21/12:00am 7.7 W 4 8 1016.0 - 0.0 - - - - - - -
 
Date/Time
EST
Temp

°C
Wind Pressure Rain
since 9am
mm
Weather Cloud Vis
km
Sea
Height
m
Swell
Dir
 
Speed
knots
Gust
knots
hPa Trend Height
m
Period
s
Dir
20/11:30pm 7.9 WSW 6 9 1015.7 - 0.0 - - - - - - -
20/11:00pm 9.4 W 10 15 1015.4 - 0.0 - - - - - - -
20/10:30pm 8.8 W 8 11 1015.3 - 0.0 - - - - - - -
20/10:00pm 8.7 SW 7 11 1015.4 - 0.0 - - - - - - -
20/09:30pm 9.9 WSW 8 12 1014.8 - 0.0 - - - - - - -
20/09:00pm 10.0 W 8 11 1014.7 - 0.0 - - - - - - -
20/08:30pm 9.7 WNW 8 17 1014.1 - 0.0 - - - - - - -
20/08:03pm 10.4 SSW 16 31 1013.5 - 0.0 - - - - - - -
20/08:00pm 10.7 SSW 13 24 1013.5 - 0.0 - - - - - - -
20/07:30pm 11.1 SSW 9 16 1012.9 - 0.0 - - - - - - -
20/07:00pm 11.4 SSW 11 15 1012.0 - 0.0 - - - - - - -
20/06:30pm 12.3 SSW 14 27 1011.5 - 0.0 - - - - - - -
20/06:00pm 12.4 SW 12 20 1010.8 - 0.0 - - - - - - -
20/05:39pm 12.8 SSW 15 25 1010.3 - 0.0 - - - - - - -
20/05:30pm 13.5 SSW 11 19 1010.1 - 0.0 - - - - - - -
20/05:00pm 13.6 SSW 4 8 1009.3 - 0.0 - - - - - - -
20/04:30pm 14.4 S 6 11 1008.9 - 0.0 - - - - - - -
20/04:00pm 14.9 SSW 6 9 1008.5 - 0.0 - - - - - - -
20/03:30pm 16.3 W 8 13 1008.2 - 0.0 - - - - - - -
20/03:07pm 17.0 NW 16 29 1007.6 - 0.0 - - - - - - -
20/03:00pm 17.0 NW 12 22 1007.5 - 0.0 - - - - - - -
20/02:30pm 17.9 NW 9 16 1007.0 - 0.0 - - - - - - -
20/02:00pm 18.4 NNW 12 19 1006.8 - 0.0 - - - - - - -
20/01:30pm 17.0 NNW 12 20 1006.7 - 0.0 - - - - - - -
20/01:00pm 17.1 NNW 13 23 1007.1 - 0.0 - - - - - - -
20/12:30pm 16.8 NNW 12 18 1007.5 - 0.0 - - - - - - -
20/12:00pm 14.9 N 9 15 1008.3 - 0.0 - - - - - - -
20/11:30am 14.3 NNE 5 9 1008.9 - 0.0 - - - - - - -
20/11:00am 13.3 N 6 9 1009.2 - 0.0 - - - - - - -
20/10:30am 13.7 N 7 10 1009.5 - 0.0 - - - - - - -
20/10:00am 13.4 N 9 13 1010.0 - 0.0 - - - - - - -
20/09:30am 11.9 N 9 12 1010.3 - 0.0 - - - - - - -
20/09:00am 11.6 NNW 12 15 1010.5 - 0.0 - - - - - - -
20/08:30am 10.3 N 9 11 1010.8 - 0.0 - - - - - - -
20/08:00am 9.5 NNW 12 15 1010.7 - 0.0 - - - - - - -
20/07:30am 8.6 NNW 11 15 1010.8 - 0.0 - - - - - - -
20/07:00am 8.3 NNW 11 14 1010.7 - 0.0 - - - - - - -
20/06:30am 8.8 N 12 17 1010.6 - 0.0 - - - - - - -
20/06:00am 8.8 N 13 17 1010.6 - 0.0 - - - - - - -
20/05:30am 8.8 N 12 15 1010.6 - 0.0 - - - - - - -
20/05:00am 8.9 N 12 16 1010.8 - 0.0 - - - - - - -
20/04:30am 9.3 N 12 16 1011.0 - 0.0 - - - - - - -
20/04:00am 9.5 NNW 13 17 1011.2 - 0.0 - - - - - - -
20/03:30am 9.2 N 7 10 1011.4 - 0.0 - - - - - - -
20/03:00am 9.8 N 7 9 1012.0 - 0.0 - - - - - - -
20/02:30am 10.1 NNW 9 13 1012.4 - 0.0 - - - - - - -
20/02:00am 10.0 NNW 9 11 1012.7 - 0.0 - - - - - - -
20/01:30am 9.9 NNW 8 11 1013.1 - 0.0 - - - - - - -
20/01:00am 10.0 NNW 12 16 1013.2 - 0.0 - - - - - - -
20/12:30am 9.8 NW 10 14 1013.5 - 0.0 - - - - - - -
20/12:00am 9.6 NNW 8 11 1013.6 - 0.0 - - - - - - -
 
Date/Time
EST
Temp

°C
Wind Pressure Rain
since 9am
mm
Weather Cloud Vis
km
Sea
Height
m
Swell
Dir
 
Speed
knots
Gust
knots
hPa Trend Height
m
Period
s
Dir
19/11:30pm 10.0 NW 8 11 1013.8 - 0.0 - - - - - - -
19/11:00pm 10.3 NW 8 11 1014.2 - 0.0 - - - - - - -
19/10:30pm 10.2 NW 8 13 1014.5 - 0.0 - - - - - - -
19/10:00pm 10.3 NW 9 13 1015.0 - 0.0 - - - - - - -
19/09:30pm 10.1 NW 8 12 1015.0 - 0.0 - - - - - - -
19/09:00pm 9.0 NW 4 7 1015.2 - 0.0 - - - - - - -
19/08:30pm 9.6 NNW 5 7 1015.1 - 0.0 - - - - - - -
19/08:00pm 10.6 NNW 4 6 1015.0 - 0.0 - - - - - - -
19/07:30pm 11.1 W 4 7 1015.0 - 0.0 - - - - - - -
19/07:00pm 11.3 W 6 10 1014.9 - 0.0 - - - - - - -
19/06:30pm 11.3 WSW 7 9 1014.8 - 0.0 - - - - - - -
19/06:00pm 12.0 SW 6 9 1014.7 - 0.0 - - - - - - -
19/05:30pm 12.1 WSW 7 9 1014.5 - 0.0 - - - - - - -
19/05:00pm 11.9 SW 9 13 1014.4 - 0.0 - - - - - - -
19/04:30pm 12.4 SSW 10 16 1014.5 - 0.0 - - - - - - -
19/04:00pm 12.7 SSW 8 11 1014.5 - 0.0 - - - - - - -
19/03:30pm 13.4 SW 9 14 1014.5 - 0.0 - - - - - - -
19/03:00pm 13.6 SW 4 7 1014.6 - 0.0 - - - - - - -
19/02:30pm 13.4 SSW 3 6 1014.5 - 0.0 - - - - - - -
19/02:00pm 14.2 SW 9 15 1014.5 - 0.0 - - - - - - -
19/01:30pm 13.1 SW 11 17 1014.6 - 0.0 - - - - - - -
19/01:00pm 13.0 S 12 17 1014.8 - 0.0 - - - - - - -
19/12:30pm 13.5 SSW 6 16 1015.2 - 0.0 - - - - - - -
19/12:00pm 12.7 WSW 11 21 1015.8 - 0.0 - - - - - - -
19/11:30am 12.8 WSW 11 20 1015.9 - 0.0 - - - - - - -
19/11:00am 14.8 WSW 10 15 1016.1 - 0.0 - - - - - - -
19/10:30am 13.1 SSW 10 16 1015.9 - 0.0 - - - - - - -
19/10:00am 13.0 SSW 10 15 1016.0 - 0.0 - - - - - - -
19/09:30am 13.1 WSW 7 15 1016.0 - 0.0 - - - - - - -
19/09:00am 12.1 WSW 11 17 1015.9 - 0.0 - - - - - - -
19/08:30am 11.2 WSW 12 19 1015.6 - 0.0 - - - - - - -
19/08:00am 10.4 WSW 8 12 1015.4 - 0.0 - - - - - - -
19/07:30am 10.0 SW 10 16 1015.3 - 0.0 - - - - - - -
19/07:00am 9.4 SW 10 16 1014.9 - 0.0 - - - - - - -
19/06:30am 9.1 SSW 3 4 1014.8 - 0.0 - - - - - - -
19/06:00am 9.7 WSW 8 13 1014.6 - 0.0 - - - - - - -
19/05:30am 9.8 SW 7 15 1014.2 - 0.0 - - - - - - -
19/05:00am 9.9 SW 8 14 1014.0 - 0.0 - - - - - - -
19/04:30am 9.7 WNW 6 11 1013.9 - 0.0 - - - - - - -
19/04:00am 9.6 WSW 6 11 1013.9 - 0.0 - - - - - - -
19/03:30am 9.9 WNW 5 9 1013.8 - 0.0 - - - - - - -
19/03:00am 10.0 W 5 9 1013.5 - 0.0 - - - - - - -
19/02:30am 10.1 WNW 7 11 1013.6 - 0.0 - - - - - - -
19/02:00am 9.8 WSW 6 10 1013.7 - 0.0 - - - - - - -
19/01:30am 10.2 W 6 11 1013.6 - 0.0 - - - - - - -
19/01:00am 10.1 WNW 3 5 1013.5 - 0.0 - - - - - - -
19/12:30am 10.1 WSW 7 13 1013.6 - 0.0 - - - - - - -
19/12:00am 9.9 WSW 2 5 1013.6 - 0.0 - - - - - - -
 
Date/Time
EST
Temp

°C
Wind Pressure Rain
since 9am
mm
Weather Cloud Vis
km
Sea
Height
m
Swell
Dir
 
Speed
knots
Gust
knots
hPa Trend Height
m
Period
s
Dir
18/11:30pm 10.4 W 7 12 1013.5 - 0.0 - - - - - - -
18/11:00pm 10.5 W 3 10 1013.4 - 0.0 - - - - - - -
18/10:30pm 10.8 NNW 4 9 1013.2 - 0.0 - - - - - - -
18/10:00pm 11.1 WNW 7 16 1013.4 - 0.0 - - - - - - -
18/09:30pm 10.8 SW 9 15 1012.9 - 0.0 - - - - - - -
18/09:00pm 11.5 WSW 4 8 1012.7 - 0.0 - - - - - - -
18/08:30pm 11.8 NW 7 9 1012.3 - 0.0 - - - - - - -
18/08:00pm 11.5 NW 4 11 1012.0 - 0.0 - - - - - - -
18/07:30pm 11.7 S 3 6 1011.7 - 0.0 - - - - - - -
18/07:00pm 11.8 WSW 5 11 1011.6 - 0.0 - - - - - - -

Other Formats:

Comma delimited format used in spreadsheet applications
http://www.bom.gov.au/fwo/IDT60701/IDT60701.94970.axf

JavaScript Object Notation format (JSON) in row-major order
http://www.bom.gov.au/fwo/IDT60701/IDT60701.94970.json